Time;durP1;ratioP1;P1;durP2;ratioP2;P2;SDS_P1;SDS_P2;PMS_P1;PMS_P2;Temp;Humidity;BMP_temperature;BMP_pressure;BME280_temperature;BME280_humidity;BME280_pressure;Samples;Min_cycle;Max_cycle;Signal;HPM_P1;HPM_P2
2023/03/16 00:00:21;;;;;;;16.70;7.40;;;15.90;46.50;;;;;;4981546;28;20447;-83
2023/03/16 00:02:49;;;;;;;9.50;6.73;;;15.90;46.70;;;;;;4988851;28;20453;-82
2023/03/16 00:05:17;;;;;;;12.87;6.73;;;15.90;46.70;;;;;;4978199;28;20449;-81
2023/03/16 00:07:45;;;;;;;10.73;6.80;;;15.90;46.70;;;;;;4983563;28;20450;-83
2023/03/16 00:10:15;;;;;;;13.80;6.50;;;15.90;46.80;;;;;;4984315;28;20454;-84
2023/03/16 00:12:43;;;;;;;12.30;7.03;;;15.90;46.70;;;;;;4979732;28;20635;-83
2023/03/16 00:15:11;;;;;;;11.50;7.03;;;15.90;46.70;;;;;;4982483;28;20470;-84
2023/03/16 00:17:40;;;;;;;14.13;6.70;;;15.90;46.60;;;;;;4986552;28;20466;-84
2023/03/16 00:20:10;;;;;;;10.80;6.90;;;15.80;46.60;;;;;;4980925;28;20453;-83
2023/03/16 00:22:39;;;;;;;15.20;6.43;;;15.80;46.60;;;;;;4981277;28;20469;-85
2023/03/16 00:25:07;;;;;;;13.80;6.47;;;15.80;46.60;;;;;;4985600;28;20465;-85
2023/03/16 00:27:37;;;;;;;13.70;6.47;;;15.70;46.30;;;;;;4983736;28;20461;-82
2023/03/16 00:30:06;;;;;;;9.97;6.17;;;15.70;46.40;;;;;;4977838;28;20449;-82
2023/03/16 00:32:35;;;;;;;11.97;6.33;;;15.70;46.40;;;;;;4971461;28;20461;-83
2023/03/16 00:35:05;;;;;;;10.83;6.10;;;15.70;46.20;;;;;;4976794;28;20446;-83
2023/03/16 00:37:38;;;;;;;9.80;5.73;;;15.70;46.20;;;;;;4982312;28;20458;-81
2023/03/16 00:40:08;;;;;;;13.07;6.80;;;15.60;46.20;;;;;;4978906;28;20542;-82
2023/03/16 00:42:37;;;;;;;9.97;6.10;;;15.60;46.10;;;;;;4981246;28;20466;-83
2023/03/16 00:45:06;;;;;;;8.53;6.23;;;15.60;46.30;;;;;;4977084;28;20450;-81
2023/03/16 00:47:34;;;;;;;10.27;6.40;;;15.60;46.30;;;;;;4974197;28;20455;-81
2023/03/16 00:50:02;;;;;;;10.23;6.20;;;15.60;46.20;;;;;;4971704;28;20464;-82
2023/03/16 00:52:31;;;;;;;8.57;5.37;;;15.50;46.40;;;;;;4978457;28;20465;-82
2023/03/16 00:54:59;;;;;;;10.27;6.30;;;15.50;46.30;;;;;;4980309;28;20525;-82
2023/03/16 00:57:28;;;;;;;10.97;5.30;;;15.50;46.30;;;;;;4979476;28;20470;-82
2023/03/16 00:59:58;;;;;;;13.63;6.23;;;15.50;46.40;;;;;;4980093;28;20488;-82
2023/03/16 01:02:26;;;;;;;6.13;4.90;;;15.50;46.30;;;;;;4970755;28;20464;-82
2023/03/16 01:04:54;;;;;;;13.03;5.70;;;15.50;46.30;;;;;;4977455;28;20464;-82
2023/03/16 01:07:22;;;;;;;9.97;5.87;;;15.50;46.40;;;;;;4981924;28;20573;-84
2023/03/16 01:09:51;;;;;;;7.83;5.43;;;15.40;46.50;;;;;;4977221;28;20504;-82
2023/03/16 01:12:19;;;;;;;9.53;5.60;;;15.40;46.50;;;;;;4976116;28;20459;-81
2023/03/16 01:14:47;;;;;;;7.23;5.13;;;15.40;46.60;;;;;;4979633;28;20570;-83
2023/03/16 01:17:17;;;;;;;9.33;5.87;;;15.40;46.60;;;;;;4975899;28;20477;-83
2023/03/16 01:19:45;;;;;;;11.67;5.80;;;15.40;47.10;;;;;;4975998;28;20529;-83
2023/03/16 01:22:14;;;;;;;9.80;5.30;;;15.40;46.50;;;;;;4978265;28;20451;-84
2023/03/16 01:24:44;;;;;;;8.40;5.37;;;15.40;46.50;;;;;;4980055;28;20452;-82
2023/03/16 01:27:12;;;;;;;9.17;5.57;;;15.40;46.60;;;;;;4975587;28;20517;-83
2023/03/16 01:29:42;;;;;;;16.27;5.70;;;15.40;46.60;;;;;;4980537;28;20460;-81
2023/03/16 01:32:10;;;;;;;7.80;5.37;;;15.30;46.60;;;;;;4978523;28;20460;-83
2023/03/16 01:34:40;;;;;;;8.53;5.63;;;15.30;46.60;;;;;;4984486;28;20479;-83
2023/03/16 01:37:09;;;;;;;7.00;5.07;;;15.30;46.60;;;;;;4982365;28;20536;-83
2023/03/16 01:39:37;;;;;;;7.10;5.07;;;15.30;46.50;;;;;;4986313;28;20522;-82
2023/03/16 01:42:06;;;;;;;13.93;8.67;;;15.30;46.40;;;;;;4986923;28;20741;-86
2023/03/16 01:44:50;;;;;;;17.80;11.50;;;15.30;46.60;;;;;;4990713;28;20454;-83
2023/03/16 01:47:18;;;;;;;19.23;10.37;;;15.30;46.50;;;;;;4985146;28;20591;-83
2023/03/16 01:49:48;;;;;;;15.93;9.50;;;15.20;46.60;;;;;;4987022;28;20510;-83
2023/03/16 01:52:18;;;;;;;17.00;9.67;;;15.20;46.60;;;;;;4984837;28;20438;-83
2023/03/16 01:54:48;;;;;;;16.87;9.50;;;15.20;47.20;;;;;;4991120;28;20501;-83
2023/03/16 01:57:18;;;;;;;13.67;8.27;;;15.20;46.70;;;;;;4983437;28;20479;-83
2023/03/16 01:59:48;;;;;;;14.40;8.37;;;15.20;46.70;;;;;;4987405;28;20458;-84
2023/03/16 02:02:18;;;;;;;17.63;9.10;;;15.20;46.70;;;;;;4981740;28;20475;-84
2023/03/16 02:04:50;;;;;;;13.80;8.20;;;15.10;46.60;;;;;;4977731;28;20454;-84
2023/03/16 02:07:18;;;;;;;13.00;8.43;;;15.10;46.60;;;;;;4978979;28;20477;-83
2023/03/16 02:09:47;;;;;;;15.17;8.63;;;15.10;46.50;;;;;;4982124;28;20462;-84
2023/03/16 02:12:17;;;;;;;12.50;8.00;;;15.10;46.60;;;;;;4987644;28;20465;-82
2023/03/16 02:14:46;;;;;;;12.90;7.80;;;15.10;46.50;;;;;;4980938;28;20545;-84
2023/03/16 02:17:14;;;;;;;13.87;7.60;;;15.00;46.50;;;;;;4980619;28;20474;-83
2023/03/16 02:19:46;;;;;;;14.50;7.80;;;15.00;46.60;;;;;;4982838;28;20451;-83
2023/03/16 02:22:15;;;;;;;10.87;6.90;;;15.00;46.60;;;;;;4982153;28;20515;-83
2023/03/16 02:24:43;;;;;;;11.43;7.43;;;15.00;46.60;;;;;;4980381;28;20458;-84
2023/03/16 02:27:12;;;;;;;10.43;7.30;;;14.90;46.50;;;;;;4986046;28;20466;-83
2023/03/16 02:29:55;;;;;;;11.80;6.87;;;14.90;46.50;;;;;;4982876;28;20460;-84
2023/03/16 02:32:24;;;;;;;11.07;6.77;;;15.00;46.50;;;;;;4982216;28;20458;-84
2023/03/16 02:34:52;;;;;;;11.00;6.93;;;14.90;46.50;;;;;;4985731;28;20454;-84
2023/03/16 02:37:20;;;;;;;10.50;7.10;;;14.90;46.50;;;;;;4979342;28;20478;-83
2023/03/16 02:39:49;;;;;;;8.30;6.40;;;14.90;46.40;;;;;;4983602;28;20554;-84
2023/03/16 02:42:18;;;;;;;8.93;6.00;;;14.90;46.40;;;;;;4982631;28;20485;-84
2023/03/16 02:44:48;;;;;;;9.37;6.30;;;14.90;46.40;;;;;;4983249;28;20466;-83
2023/03/16 02:47:22;;;;;;;16.43;7.13;;;14.80;46.40;;;;;;4983775;28;20557;-84
2023/03/16 02:49:50;;;;;;;10.00;6.53;;;14.80;46.40;;;;;;4983130;28;20473;-83
2023/03/16 02:52:18;;;;;;;7.93;6.00;;;14.80;46.40;;;;;;4982451;28;20525;-83
2023/03/16 02:54:46;;;;;;;12.77;5.80;;;14.80;46.40;;;;;;4984574;28;20517;-87
2023/03/16 02:57:14;;;;;;;13.63;5.87;;;14.80;46.50;;;;;;4975515;28;20479;-83
2023/03/16 02:59:42;;;;;;;9.77;6.13;;;14.80;46.60;;;;;;4980875;28;20482;-83
2023/03/16 03:02:10;;;;;;;10.17;6.73;;;14.80;46.70;;;;;;4986248;28;20517;-83
2023/03/16 03:04:40;;;;;;;10.77;6.23;;;14.80;46.70;;;;;;4983541;28;20456;-82
2023/03/16 03:07:08;;;;;;;8.50;5.90;;;14.80;46.50;;;;;;4987664;28;20474;-82
2023/03/16 03:09:37;;;;;;;9.33;5.50;;;14.80;46.70;;;;;;4986073;28;20459;-85
2023/03/16 03:12:06;;;;;;;8.33;5.67;;;14.70;46.50;;;;;;4977474;28;20474;-83
2023/03/16 03:14:36;;;;;;;7.90;5.40;;;14.70;46.50;;;;;;4984974;28;20454;-82
2023/03/16 03:17:06;;;;;;;7.47;5.10;;;14.70;46.70;;;;;;4982828;28;20482;-83
2023/03/16 03:19:34;;;;;;;6.70;5.23;;;14.70;46.70;;;;;;4980476;28;20897;-82
2023/03/16 03:22:05;;;;;;;9.30;6.13;;;14.60;46.60;;;;;;4980279;28;20461;-84
2023/03/16 03:24:33;;;;;;;10.70;5.50;;;14.60;46.50;;;;;;4984661;28;20454;-86
2023/03/16 03:27:04;;;;;;;9.80;5.87;;;14.60;46.50;;;;;;4982574;28;20470;-84
2023/03/16 03:29:34;;;;;;;7.50;5.23;;;14.60;46.60;;;;;;4982580;28;20450;-86
2023/03/16 03:32:02;;;;;;;11.20;5.70;;;14.60;46.60;;;;;;4981484;28;20459;-83
2023/03/16 03:34:30;;;;;;;7.10;5.67;;;14.60;46.70;;;;;;4984218;28;20464;-82
2023/03/16 03:36:58;;;;;;;6.90;5.10;;;14.60;46.60;;;;;;4982808;28;20561;-83
2023/03/16 03:39:27;;;;;;;8.50;5.40;;;14.50;46.50;;;;;;4983936;28;20458;-83
2023/03/16 03:41:55;;;;;;;9.60;4.90;;;14.50;47.30;;;;;;4978822;28;20480;-82
2023/03/16 03:44:25;;;;;;;7.00;5.40;;;14.50;46.50;;;;;;4983392;28;20486;-84
2023/03/16 03:46:53;;;;;;;6.00;4.53;;;14.50;46.40;;;;;;4982372;28;20514;-83
2023/03/16 03:49:22;;;;;;;8.70;5.20;;;14.50;46.50;;;;;;4977717;28;20489;-83
2023/03/16 03:51:50;;;;;;;7.03;5.00;;;14.50;46.40;;;;;;4977951;28;20451;-83
2023/03/16 03:54:18;;;;;;;5.13;4.50;;;14.50;46.50;;;;;;4981842;28;20464;-83
2023/03/16 03:56:48;;;;;;;7.13;5.10;;;14.40;46.50;;;;;;4980628;28;20481;-82
2023/03/16 03:59:16;;;;;;;5.53;4.80;;;14.50;46.50;;;;;;4978276;28;20460;-84
2023/03/16 04:01:44;;;;;;;5.80;5.00;;;14.50;46.50;;;;;;4975850;28;20455;-83
2023/03/16 04:04:12;;;;;;;7.53;4.70;;;14.40;46.40;;;;;;4984634;28;20450;-83
2023/03/16 04:06:41;;;;;;;7.60;4.87;;;14.50;46.60;;;;;;4981920;28;20469;-81
2023/03/16 04:09:10;;;;;;;7.30;4.80;;;14.40;46.40;;;;;;4981411;28;20454;-84
2023/03/16 04:11:38;;;;;;;7.57;4.90;;;14.40;46.40;;;;;;4978288;28;20477;-82
2023/03/16 04:14:07;;;;;;;7.33;4.90;;;14.40;46.40;;;;;;4979971;28;20455;-83
2023/03/16 04:16:36;;;;;;;6.60;5.17;;;14.40;46.50;;;;;;4971741;28;20485;-85
2023/03/16 04:19:04;;;;;;;7.93;5.17;;;14.40;46.40;;;;;;4973416;28;20478;-82
2023/03/16 04:21:32;;;;;;;6.23;5.00;;;14.40;46.30;;;;;;4973866;28;20454;-82
2023/03/16 04:24:02;;;;;;;7.63;4.90;;;14.40;46.40;;;;;;4978009;28;20453;-82
2023/03/16 04:26:33;;;;;;;6.40;4.13;;;14.40;46.50;;;;;;4975314;28;20564;-84
2023/03/16 04:29:02;;;;;;;4.87;3.97;;;14.40;46.40;;;;;;4977271;28;20454;-84
2023/03/16 04:31:32;;;;;;;6.57;4.00;;;14.30;46.30;;;;;;4981170;28;20462;-82
2023/03/16 04:34:01;;;;;;;7.67;4.40;;;14.30;46.40;;;;;;4979107;28;20450;-82
2023/03/16 04:36:29;;;;;;;4.93;4.40;;;14.30;46.30;;;;;;4977464;28;20482;-82
2023/03/16 04:38:57;;;;;;;7.57;4.60;;;14.40;46.40;;;;;;4980539;28;20485;-83
2023/03/16 04:41:25;;;;;;;5.47;4.20;;;14.30;46.30;;;;;;4980834;28;20455;-83
2023/03/16 04:43:53;;;;;;;5.77;4.83;;;14.30;46.30;;;;;;4972786;28;20450;-83
2023/03/16 04:46:21;;;;;;;5.40;4.13;;;14.30;46.30;;;;;;4978231;28;20565;-83
2023/03/16 04:48:51;;;;;;;5.23;4.50;;;14.30;46.10;;;;;;4979256;28;20583;-83
2023/03/16 04:51:20;;;;;;;4.47;4.03;;;14.30;46.10;;;;;;4977372;28;20446;-82
2023/03/16 04:53:48;;;;;;;7.17;4.67;;;14.30;46.10;;;;;;4976887;28;20951;-83
2023/03/16 04:56:18;;;;;;;7.47;4.03;;;14.30;46.10;;;;;;4973614;28;20482;-83
2023/03/16 04:58:46;;;;;;;6.57;4.37;;;14.30;46.10;;;;;;4977743;28;20474;-83
2023/03/16 05:01:15;;;;;;;7.20;4.43;;;14.30;46.00;;;;;;4973812;28;20462;-84
2023/03/16 05:03:44;;;;;;;6.37;4.50;;;14.30;46.00;;;;;;4977086;28;20514;-82
2023/03/16 05:06:13;;;;;;;5.33;4.23;;;14.30;46.00;;;;;;4972253;28;20517;-82
2023/03/16 05:08:42;;;;;;;5.47;4.30;;;14.30;45.90;;;;;;4976902;28;20450;-85
2023/03/16 05:11:10;;;;;;;6.87;4.73;;;14.30;45.80;;;;;;4978658;28;20450;-83
2023/03/16 05:13:38;;;;;;;5.90;4.40;;;14.30;45.80;;;;;;4973168;28;20455;-83
2023/03/16 05:16:07;;;;;;;4.97;3.90;;;14.30;45.70;;;;;;4971692;28;20471;-82
2023/03/16 05:18:35;;;;;;;7.33;4.70;;;14.30;45.50;;;;;;4975567;28;20505;-83
2023/03/16 05:21:03;;;;;;;4.67;3.87;;;14.20;45.50;;;;;;4976772;28;20464;-84
2023/03/16 05:23:33;;;;;;;6.60;4.60;;;14.20;45.50;;;;;;4983085;28;20450;-82
2023/03/16 05:26:01;;;;;;;6.80;3.97;;;14.20;45.40;;;;;;4984775;28;20478;-83
2023/03/16 05:28:30;;;;;;;5.83;4.30;;;14.20;45.40;;;;;;4985226;28;20544;-82
2023/03/16 05:31:02;;;;;;;7.97;4.27;;;14.20;45.30;;;;;;4980397;28;20458;-84
2023/03/16 05:33:30;;;;;;;4.27;3.77;;;14.20;45.10;;;;;;4979042;28;20458;-88
2023/03/16 05:35:59;;;;;;;7.47;3.87;;;14.20;45.10;;;;;;4981868;28;20470;-83
2023/03/16 05:38:27;;;;;;;7.40;4.07;;;14.20;45.10;;;;;;4981767;28;20481;-83
2023/03/16 05:41:00;;;;;;;5.93;4.30;;;14.20;44.90;;;;;;4982053;28;20458;-85
2023/03/16 05:43:33;;;;;;;5.30;3.80;;;14.20;44.80;;;;;;4980202;28;20454;-84
2023/03/16 05:46:01;;;;;;;7.10;4.13;;;14.20;44.80;;;;;;4985535;28;20504;-82
2023/03/16 05:48:29;;;;;;;4.30;3.80;;;14.20;44.60;;;;;;4988268;28;20450;-84
2023/03/16 05:50:57;;;;;;;4.87;3.87;;;14.20;44.60;;;;;;4985543;28;20454;-84
2023/03/16 05:53:27;;;;;;;5.70;4.27;;;14.20;44.60;;;;;;4986452;28;20543;-82
2023/03/16 05:55:57;;;;;;;4.97;3.87;;;14.20;44.60;;;;;;4987282;28;20478;-82
2023/03/16 05:58:25;;;;;;;5.63;4.17;;;14.20;44.30;;;;;;4985404;28;20478;-83
2023/03/16 06:00:54;;;;;;;4.80;3.90;;;14.20;44.30;;;;;;4983112;28;20458;-84
2023/03/16 06:03:22;;;;;;;3.93;3.20;;;14.20;44.10;;;;;;4982597;28;20529;-84
2023/03/16 06:05:50;;;;;;;5.00;3.47;;;14.20;44.20;;;;;;4983772;28;20474;-84
2023/03/16 06:08:18;;;;;;;7.73;3.90;;;14.20;44.40;;;;;;4987079;28;20462;-84
2023/03/16 06:10:46;;;;;;;3.90;3.30;;;14.20;44.20;;;;;;4980547;28;20459;-86
2023/03/16 06:13:16;;;;;;;6.17;3.90;;;14.20;44.20;;;;;;4985058;28;20466;-84
2023/03/16 06:15:44;;;;;;;4.73;3.93;;;14.20;44.20;;;;;;4982207;28;20485;-83
2023/03/16 06:18:12;;;;;;;4.57;3.47;;;14.20;44.20;;;;;;4985912;28;20458;-84
2023/03/16 06:20:40;;;;;;;4.93;3.80;;;14.20;44.20;;;;;;4984351;28;20468;-84
2023/03/16 06:23:08;;;;;;;4.80;4.20;;;14.20;44.10;;;;;;4985135;28;20534;-85
2023/03/16 06:25:36;;;;;;;4.83;3.63;;;14.20;44.20;;;;;;4979887;28;20478;-84
2023/03/16 06:28:07;;;;;;;4.30;3.40;;;14.30;44.10;;;;;;4985708;28;20469;-84
2023/03/16 06:30:37;;;;;;;9.53;4.20;;;14.20;44.00;;;;;;4988326;28;20593;-83
2023/03/16 06:33:05;;;;;;;4.37;3.80;;;14.30;44.00;;;;;;4985322;28;20470;-83
2023/03/16 06:35:34;;;;;;;4.13;3.67;;;14.30;44.00;;;;;;4983053;28;20475;-85
2023/03/16 06:38:02;;;;;;;5.27;3.77;;;14.30;43.90;;;;;;4986600;28;20478;-84
2023/03/16 06:40:30;;;;;;;4.70;3.80;;;14.30;44.00;;;;;;4984855;28;20473;-83
2023/03/16 06:42:58;;;;;;;6.27;3.50;;;14.30;44.00;;;;;;4984743;28;20454;-83
2023/03/16 06:45:26;;;;;;;5.10;3.80;;;14.30;43.80;;;;;;4986921;28;20483;-84
2023/03/16 06:47:56;;;;;;;5.57;4.30;;;14.30;44.00;;;;;;4985367;28;20468;-86
2023/03/16 06:50:24;;;;;;;6.93;3.90;;;14.40;44.00;;;;;;4985266;28;20479;-84
2023/03/16 06:52:52;;;;;;;4.07;3.40;;;14.40;44.00;;;;;;4985234;28;20454;-84
2023/03/16 06:55:20;;;;;;;3.50;3.27;;;14.40;43.90;;;;;;4981680;28;20458;-82
2023/03/16 06:57:49;;;;;;;5.03;3.70;;;14.40;43.80;;;;;;4980788;28;20463;-82
2023/03/16 07:00:17;;;;;;;4.70;3.57;;;14.40;43.70;;;;;;4983533;28;20576;-82
2023/03/16 07:02:46;;;;;;;6.33;3.60;;;14.50;43.70;;;;;;4982985;28;20501;-84
2023/03/16 07:05:15;;;;;;;6.07;4.13;;;14.50;43.60;;;;;;4984218;28;20482;-81
2023/03/16 07:07:44;;;;;;;4.20;3.40;;;14.50;43.60;;;;;;4984209;28;20971;-81
2023/03/16 07:10:12;;;;;;;4.60;3.37;;;14.50;43.40;;;;;;4982279;28;20455;-82
2023/03/16 07:12:41;;;;;;;4.33;3.27;;;14.50;43.40;;;;;;4985047;28;20449;-83
2023/03/16 07:15:10;;;;;;;6.63;3.50;;;14.60;43.30;;;;;;4983059;28;20526;-84
2023/03/16 07:17:38;;;;;;;4.90;3.57;;;14.60;43.20;;;;;;4985590;28;20459;-83
2023/03/16 07:20:09;;;;;;;4.80;3.00;;;14.60;43.10;;;;;;4978288;28;20466;-83
2023/03/16 07:22:39;;;;;;;5.93;3.43;;;14.60;43.00;;;;;;4986957;28;20458;-82
2023/03/16 07:25:08;;;;;;;6.93;3.90;;;14.60;43.00;;;;;;4976910;28;20458;-82
2023/03/16 07:27:36;;;;;;;5.33;3.10;;;14.70;42.90;;;;;;4978020;28;20541;-83
2023/03/16 07:30:05;;;;;;;4.87;3.57;;;14.70;42.70;;;;;;4983556;28;20506;-84
2023/03/16 07:32:33;;;;;;;3.77;3.30;;;14.70;42.60;;;;;;4976357;28;20509;-83
2023/03/16 07:35:01;;;;;;;5.47;3.07;;;14.70;42.50;;;;;;4972600;28;20514;-82
2023/03/16 07:37:29;;;;;;;5.57;3.27;;;14.70;42.30;;;;;;4968304;28;20465;-82
2023/03/16 07:39:59;;;;;;;5.50;3.70;;;14.80;42.10;;;;;;4975078;28;20848;-82
2023/03/16 07:42:27;;;;;;;5.03;3.30;;;14.80;42.00;;;;;;4969255;28;20450;-83
2023/03/16 07:44:55;;;;;;;4.40;3.30;;;14.80;41.90;;;;;;4976538;28;20458;-83
2023/03/16 07:47:24;;;;;;;4.17;3.50;;;14.90;41.70;;;;;;4976007;28;20492;-83
2023/03/16 07:49:53;;;;;;;4.17;2.73;;;14.90;41.50;;;;;;4974833;28;20453;-82
2023/03/16 07:52:21;;;;;;;3.50;3.10;;;14.90;41.30;;;;;;4974935;28;20512;-83
2023/03/16 07:54:50;;;;;;;3.40;3.10;;;15.00;41.20;;;;;;4976380;28;20454;-83
2023/03/16 07:57:20;;;;;;;8.17;3.57;;;15.00;41.00;;;;;;4979246;28;20496;-82
2023/03/16 07:59:48;;;;;;;3.37;3.00;;;15.00;40.90;;;;;;4978810;28;20546;-83
2023/03/16 08:02:17;;;;;;;4.37;2.70;;;15.00;40.80;;;;;;4976405;28;20567;-84
2023/03/16 08:04:45;;;;;;;3.07;2.57;;;15.10;40.70;;;;;;4978040;28;20458;-83
2023/03/16 08:07:14;;;;;;;4.00;2.97;;;15.10;40.40;;;;;;4978659;28;20474;-84
2023/03/16 08:09:42;;;;;;;4.07;3.10;;;15.10;40.40;;;;;;4974282;28;20446;-82
2023/03/16 08:12:10;;;;;;;3.73;3.10;;;15.10;40.20;;;;;;4972733;28;20461;-83
2023/03/16 08:14:40;;;;;;;3.80;2.80;;;15.20;40.20;;;;;;4975464;28;20461;-84
2023/03/16 08:17:08;;;;;;;2.77;2.53;;;15.20;40.00;;;;;;4976890;28;20481;-83
2023/03/16 08:19:36;;;;;;;3.70;2.73;;;15.20;39.90;;;;;;4978245;28;20485;-84
2023/03/16 08:22:04;;;;;;;3.50;2.60;;;15.30;39.80;;;;;;4974977;28;20454;-83
2023/03/16 08:24:32;;;;;;;4.97;2.83;;;15.30;39.60;;;;;;4975540;28;20450;-84
2023/03/16 08:27:01;;;;;;;4.37;3.10;;;15.30;39.40;;;;;;4981321;28;20562;-83
2023/03/16 08:29:29;;;;;;;3.13;2.83;;;15.40;39.40;;;;;;4977099;28;20504;-83
2023/03/16 08:31:59;;;;;;;5.43;2.83;;;15.40;39.30;;;;;;4974811;28;20461;-82
2023/03/16 08:34:27;;;;;;;5.53;2.50;;;15.50;39.20;;;;;;4975140;28;20546;-83
2023/03/16 08:36:55;;;;;;;6.20;3.17;;;15.50;39.70;;;;;;4977210;28;20485;-86
2023/03/16 08:39:23;;;;;;;3.17;2.70;;;15.50;38.80;;;;;;4979156;28;20465;-84
2023/03/16 08:41:52;;;;;;;5.73;2.80;;;15.50;38.70;;;;;;4980251;28;20552;-84
2023/03/16 08:44:22;;;;;;;3.53;2.33;;;15.60;38.70;;;;;;4976259;28;20536;-84
2023/03/16 08:46:50;;;;;;;7.80;3.10;;;15.60;38.50;;;;;;4976652;28;20557;-83
2023/03/16 08:49:20;;;;;;;5.30;3.63;;;15.70;38.40;;;;;;4976768;28;20458;-84
2023/03/16 08:51:48;;;;;;;5.13;3.33;;;15.70;38.20;;;;;;4972388;28;20550;-78
2023/03/16 08:54:16;;;;;;;8.70;3.50;;;13.70;32.30;;;;;;4970280;28;20451;-78
2023/03/16 08:56:44;;;;;;;8.13;3.40;;;11.40;36.30;;;;;;4969502;28;20462;-76
2023/03/16 08:59:13;;;;;;;6.67;3.43;;;10.00;38.20;;;;;;4968211;28;20442;-79
2023/03/16 09:01:56;;;;;;;4.47;3.43;;;9.10;41.50;;;;;;4963808;28;20441;-77
2023/03/16 09:04:27;;;;;;;5.17;3.03;;;8.90;42.10;;;;;;4959548;28;20454;-77
2023/03/16 09:06:55;;;;;;;9.67;3.77;;;8.50;42.90;;;;;;4972126;28;20481;-79
2023/03/16 09:09:35;;;;;;;5.17;3.40;;;8.50;43.60;;;;;;4969288;28;20540;-78
2023/03/16 09:12:04;;;;;;;10.20;3.70;;;8.30;44.50;;;;;;4972170;28;20454;-79
2023/03/16 09:14:33;;;;;;;7.30;3.53;;;8.50;44.10;;;;;;4972447;28;21010;-77
2023/03/16 09:17:01;;;;;;;6.13;4.03;;;8.40;43.90;;;;;;4972254;28;20473;-82
2023/03/16 09:19:32;;;;;;;4.30;3.50;;;8.30;44.10;;;;;;4973962;28;20453;-81
2023/03/16 09:22:18;;;;;;;6.67;2.90;;;9.50;45.80;;;;;;4974519;28;20430;-80
2023/03/16 09:24:47;;;;;;;4.70;2.73;;;11.00;43.00;;;;;;4980842;28;20533;-81
2023/03/16 09:27:15;;;;;;;5.10;3.63;;;12.00;40.80;;;;;;4975065;28;20463;-81
2023/03/16 09:29:44;;;;;;;6.30;2.93;;;12.70;39.20;;;;;;4975059;28;20451;-81
2023/03/16 09:32:13;;;;;;;7.43;2.73;;;13.20;38.00;;;;;;4975529;28;20447;-83
2023/03/16 09:34:43;;;;;;;5.10;3.13;;;13.70;37.40;;;;;;4978024;28;20501;-83
2023/03/16 09:37:11;;;;;;;6.60;3.00;;;14.10;36.90;;;;;;4975488;28;20552;-82
2023/03/16 09:39:39;;;;;;;5.40;3.40;;;14.40;36.50;;;;;;4974057;28;20559;-84
2023/03/16 09:42:13;;;;;;;3.93;3.00;;;14.60;36.20;;;;;;4978392;28;20470;-83
2023/03/16 09:44:46;;;;;;;3.70;2.73;;;14.90;35.80;;;;;;4976880;28;20450;-83
2023/03/16 09:47:15;;;;;;;4.00;3.07;;;15.10;35.60;;;;;;4981951;28;21011;-85
2023/03/16 09:49:46;;;;;;;7.70;2.60;;;15.20;35.20;;;;;;4978577;28;20450;-84
2023/03/16 09:52:22;;;;;;;8.63;2.47;;;15.40;35.10;;;;;;4977664;28;20514;-83
2023/03/16 09:54:54;;;;;;;2.50;2.30;;;15.60;35.00;;;;;;4982874;28;20430;-83
2023/03/16 09:57:26;;;;;;;5.60;2.80;;;15.80;34.90;;;;;;4985624;28;20470;-83
2023/03/16 09:59:54;;;;;;;4.57;2.90;;;16.00;34.80;;;;;;4981599;28;20449;-84
2023/03/16 10:02:40;;;;;;;5.13;2.67;;;16.10;34.70;;;;;;4977193;28;20472;-83
2023/03/16 10:05:11;;;;;;;4.63;2.97;;;16.30;34.70;;;;;;4975814;28;20450;-83
2023/03/16 10:07:45;;;;;;;3.80;2.67;;;16.40;34.70;;;;;;4979312;28;20465;-83
2023/03/16 10:10:27;;;;;;;3.13;2.60;;;16.60;34.60;;;;;;4979191;28;20449;-83
2023/03/16 10:12:55;;;;;;;3.10;2.60;;;16.80;34.60;;;;;;4981336;28;20546;-83
2023/03/16 10:15:27;;;;;;;2.47;2.30;;;17.00;34.50;;;;;;4979271;28;20466;-78
2023/03/16 10:17:56;;;;;;;2.90;2.47;;;17.10;34.40;;;;;;4979720;28;20434;-81
2023/03/16 10:20:27;;;;;;;3.63;2.43;;;17.20;34.20;;;;;;4976041;28;20450;-80
2023/03/16 10:22:58;;;;;;;2.93;2.60;;;17.20;34.20;;;;;;4976870;28;20530;-82
2023/03/16 10:25:29;;;;;;;5.00;2.80;;;17.30;34.20;;;;;;4976577;28;20850;-82
2023/03/16 10:27:57;;;;;;;5.20;2.77;;;17.30;34.20;;;;;;4972948;28;20469;-82
2023/03/16 10:30:27;;;;;;;5.03;2.70;;;17.40;34.20;;;;;;4975339;28;20463;-82
2023/03/16 10:32:56;;;;;;;3.63;2.60;;;17.40;34.10;;;;;;4973540;28;20462;-83
2023/03/16 10:35:38;;;;;;;2.43;2.33;;;17.40;34.10;;;;;;4978246;28;20473;-84
2023/03/16 10:38:07;;;;;;;2.57;2.37;;;17.50;34.10;;;;;;4975432;28;20533;-81
2023/03/16 10:40:37;;;;;;;3.63;2.40;;;17.60;34.30;;;;;;4966084;28;20430;-83
2023/03/16 10:43:08;;;;;;;3.60;2.63;;;17.70;34.30;;;;;;4958356;28;20485;-82
2023/03/16 10:45:36;;;;;;;5.33;2.50;;;17.70;34.20;;;;;;4976985;28;20485;-81
2023/03/16 10:48:08;;;;;;;5.53;2.77;;;17.80;34.20;;;;;;4964769;28;20481;-81
2023/03/16 10:50:41;;;;;;;2.17;2.07;;;17.90;34.20;;;;;;4975740;28;20458;-83
2023/03/16 10:53:15;;;;;;;2.80;2.60;;;18.00;34.20;;;;;;4970566;28;20451;-83
2023/03/16 10:55:44;;;;;;;6.30;2.57;;;18.10;34.30;;;;;;4972877;28;20494;-82
2023/03/16 10:58:24;;;;;;;5.47;2.20;;;18.20;34.20;;;;;;4977866;28;20454;-82
2023/03/16 11:00:53;;;;;;;6.00;2.63;;;18.40;34.20;;;;;;4972167;28;20485;-83
2023/03/16 11:03:24;;;;;;;5.40;2.70;;;18.60;34.10;;;;;;4963688;28;20459;-82
2023/03/16 11:06:01;;;;;;;3.50;2.93;;;18.80;34.00;;;;;;4976372;28;20466;-83
2023/03/16 11:08:33;;;;;;;4.07;2.60;;;19.10;34.10;;;;;;4978113;28;20450;-83
2023/03/16 11:11:08;;;;;;;3.50;2.70;;;19.40;34.00;;;;;;4970370;28;20454;-83
2023/03/16 11:13:37;;;;;;;2.47;2.27;;;19.70;33.90;;;;;;4977864;28;20468;-82
2023/03/16 11:16:11;;;;;;;3.13;2.50;;;20.00;33.60;;;;;;4970376;28;20546;-82
2023/03/16 11:18:42;;;;;;;2.90;2.40;;;20.20;33.40;;;;;;4974613;28;20454;-82
2023/03/16 11:21:15;;;;;;;2.90;2.50;;;20.40;33.20;;;;;;4970262;28;20482;-83
2023/03/16 11:23:47;;;;;;;3.77;2.37;;;20.60;33.10;;;;;;4973156;28;20453;-85
2023/03/16 11:26:18;;;;;;;2.33;2.13;;;20.80;32.90;;;;;;4978905;28;20490;-84
2023/03/16 11:28:48;;;;;;;5.13;2.40;;;20.90;32.70;;;;;;4983361;28;20896;-86
2023/03/16 11:31:20;;;;;;;2.43;2.20;;;21.00;32.50;;;;;;4979710;28;20447;-86
2023/03/16 11:33:48;;;;;;;3.30;1.87;;;20.90;32.40;;;;;;4970560;28;20477;-85
2023/03/16 11:36:33;;;;;;;1.87;1.77;;;20.70;32.40;;;;;;4980102;28;20461;-87
2023/03/16 11:39:06;;;;;;;3.73;2.00;;;20.50;32.60;;;;;;4975329;28;20463;-86
2023/03/16 11:41:39;;;;;;;2.43;1.90;;;20.40;32.70;;;;;;4980978;28;20470;-86
2023/03/16 11:44:08;;;;;;;5.20;1.90;;;20.20;32.90;;;;;;4974078;28;20456;-86
2023/03/16 11:46:40;;;;;;;2.90;2.40;;;20.10;32.80;;;;;;4983084;28;20496;-86
2023/03/16 11:49:31;;;;;;;2.97;1.93;;;20.00;33.00;;;;;;4968697;28;20525;-87
2023/03/16 11:52:04;;;;;;;4.00;2.47;;;20.10;33.10;;;;;;4972195;28;20456;-85
2023/03/16 11:54:41;;;;;;;2.60;2.10;;;20.00;33.00;;;;;;4979937;28;20450;-86
2023/03/16 11:57:14;;;;;;;2.00;1.80;;;19.90;33.00;;;;;;4972520;28;20478;-87
2023/03/16 12:00:00;;;;;;;2.30;2.10;;;19.80;33.00;;;;;;4975718;28;20535;-86
2023/03/16 12:02:35;;;;;;;6.17;2.03;;;19.70;33.10;;;;;;4973164;28;20480;-87
2023/03/16 12:05:38;;;;;;;2.27;2.13;;;19.60;33.10;;;;;;4977078;28;20435;-85
2023/03/16 12:08:15;;;;;;;4.23;2.27;;;19.60;33.10;;;;;;4960918;28;20500;-86
2023/03/16 12:10:45;;;;;;;4.77;2.10;;;19.50;33.20;;;;;;4980665;28;20449;-86
2023/03/16 12:13:19;;;;;;;2.53;2.30;;;19.60;33.30;;;;;;4979197;28;20466;-86
2023/03/16 12:15:48;;;;;;;2.70;2.20;;;19.60;33.40;;;;;;4983029;28;20492;-86
2023/03/16 12:18:18;;;;;;;2.60;2.07;;;19.60;33.20;;;;;;4968192;28;20511;-86
2023/03/16 12:20:50;;;;;;;2.50;2.30;;;19.60;33.20;;;;;;4977081;28;20461;-85
2023/03/16 12:23:26;;;;;;;2.50;1.97;;;19.50;33.20;;;;;;4988189;28;20485;-84
2023/03/16 12:25:58;;;;;;;3.73;2.13;;;19.50;33.30;;;;;;4983787;28;20473;-85
2023/03/16 12:28:30;;;;;;;2.00;1.80;;;19.50;33.40;;;;;;4985503;28;20454;-84
2023/03/16 12:31:08;;;;;;;1.97;1.87;;;19.60;33.30;;;;;;4975568;28;20455;-84
2023/03/16 12:33:46;;;;;;;2.00;1.80;;;19.60;33.20;;;;;;4979351;28;20438;-84
2023/03/16 12:36:46;;;;;;;2.57;2.20;;;19.60;33.20;;;;;;4969149;28;20470;-85
2023/03/16 12:39:18;;;;;;;2.20;2.00;;;19.60;33.20;;;;;;4955732;28;20450;-84
2023/03/16 12:41:52;;;;;;;2.60;2.20;;;19.60;33.30;;;;;;4984228;28;20473;-84
2023/03/16 12:44:22;;;;;;;2.63;2.00;;;19.50;33.20;;;;;;4984442;28;20459;-84
2023/03/16 12:46:55;;;;;;;2.33;2.13;;;19.40;33.30;;;;;;4982050;28;20470;-84
2023/03/16 12:49:25;;;;;;;4.47;2.20;;;19.30;33.40;;;;;;4988977;28;20540;-84
2023/03/16 12:51:59;;;;;;;2.17;2.07;;;19.30;33.40;;;;;;4976672;28;20449;-82
2023/03/16 12:54:29;;;;;;;2.20;2.10;;;19.20;33.40;;;;;;4985430;28;20449;-82
2023/03/16 12:57:00;;;;;;;2.20;2.00;;;19.10;33.40;;;;;;4981885;28;20473;-82
2023/03/16 12:59:37;;;;;;;2.20;2.10;;;19.10;33.40;;;;;;4986889;28;20450;-82